Terminal Aerodrome Forecast
Issued by NWS Brownsville, TX

Home | Current Version | Previous Version | Text Only | Print | Product List | Glossary On
Versions: 1 2 3 4 5 6 7 8 9 10 11 12 13 14 15 16 17 18 19
000
FTUS44 KBRO 191200 CCA
TAFHRL
TAF COR
KHRL 191210Z 1912/2012 11004KT 3SM BR SCT250
      TEMPO 1912/1915 2SM BR
     FM191500 14010KT P6SM SCT030
     FM191800 15011KT P6SM VCSH BKN050 PROB30 1921/1924 5SM -SHRA
      BKN035
     FM200000 12009KT P6SM OVC250 PROB30 2000/2002 5SM -SHRA BKN035
     FM200400 13006KT P6SM SCT050
     FM200900 15003KT P6SM SCT100 SCT250=

USA.gov is the U.S. government's official web portal to all federal, state and local government web resources and services.